createdAt,value
2023-02-27T00:00:53.183Z,100.00
2023-02-27T00:01:57.212Z,100.00
2023-02-27T00:03:00.463Z,100.00
2023-02-27T00:04:06.664Z,100.00
2023-02-27T00:05:09.083Z,100.00
2023-02-27T00:06:12.899Z,100.00
2023-02-27T00:07:17.766Z,100.00
2023-02-27T00:08:21.476Z,100.00
2023-02-27T00:09:24.773Z,100.00
2023-02-27T00:10:27.442Z,100.00
2023-02-27T00:11:32.931Z,100.00
2023-02-27T00:12:38.174Z,100.00
2023-02-27T00:13:42.658Z,100.00
2023-02-27T00:14:45.867Z,100.00
2023-02-27T00:15:51.964Z,100.00
2023-02-27T00:16:57.454Z,100.00
2023-02-27T00:17:59.809Z,100.00
2023-02-27T00:19:05.015Z,100.00
2023-02-27T00:20:11.728Z,100.00
2023-02-27T00:21:15.129Z,100.00
2023-02-27T00:22:18.767Z,100.00
2023-02-27T00:23:22.243Z,100.00
2023-02-27T00:24:27.631Z,100.00
2023-02-27T00:25:31.284Z,100.00
2023-02-27T00:26:37.269Z,100.00
2023-02-27T00:27:41.276Z,100.00
2023-02-27T00:28:44.567Z,100.00
2023-02-27T00:29:48.067Z,100.00
2023-02-27T00:30:53.309Z,100.00
2023-02-27T00:31:57.349Z,100.00
2023-02-27T00:33:02.849Z,100.00
2023-02-27T00:34:06.381Z,100.00
2023-02-27T00:35:12.482Z,100.00
2023-02-27T00:36:17.732Z,100.00
2023-02-27T00:37:20.892Z,100.00
2023-02-27T00:38:24.466Z,100.00
2023-02-27T00:39:29.021Z,100.00
2023-02-27T00:40:32.942Z,100.00
2023-02-27T00:41:36.061Z,100.00
2023-02-27T00:42:39.532Z,100.00
2023-02-27T00:43:43.800Z,100.00
2023-02-27T00:44:48.032Z,100.00
2023-02-27T00:45:51.723Z,100.00
2023-02-27T00:46:58.047Z,100.00
2023-02-27T00:48:01.437Z,100.00
2023-02-27T00:49:05.054Z,100.00
2023-02-27T00:50:10.305Z,100.00
2023-02-27T00:51:13.636Z,100.00
2023-02-27T00:52:17.034Z,100.00
2023-02-27T00:53:20.302Z,100.00
2023-02-27T00:54:27.172Z,100.00
2023-02-27T00:55:30.508Z,100.00
2023-02-27T00:56:36.161Z,100.00
2023-02-27T00:57:41.136Z,100.00
2023-02-27T00:58:44.955Z,100.00
2023-02-27T00:59:49.305Z,100.00
2023-02-27T01:00:53.704Z,100.00
2023-02-27T01:01:57.454Z,100.00
2023-02-27T01:03:03.466Z,100.00
2023-02-27T01:04:07.703Z,100.00
2023-02-27T01:05:16.318Z,100.00
2023-02-27T01:06:20.041Z,100.00
2023-02-27T01:07:25.426Z,100.00
2023-02-27T01:08:30.187Z,100.00
2023-02-27T01:09:35.564Z,100.00
2023-02-27T01:10:39.597Z,100.00
2023-02-27T01:11:43.047Z,100.00
2023-02-27T01:12:46.110Z,100.00
2023-02-27T01:13:49.753Z,100.00
2023-02-27T01:14:56.529Z,100.00
2023-02-27T01:15:59.893Z,100.00
2023-02-27T01:17:05.544Z,100.00
2023-02-27T01:18:08.935Z,100.00
2023-02-27T01:19:13.358Z,100.00
2023-02-27T01:20:19.744Z,100.00
2023-02-27T01:21:23.316Z,100.00
2023-02-27T01:22:27.684Z,100.00
2023-02-27T01:23:31.301Z,98.43
2023-02-27T01:24:35.611Z,98.39
2023-02-27T01:25:42.145Z,99.05
2023-02-27T01:26:45.545Z,99.42
2023-02-27T01:27:48.425Z,98.11
2023-02-27T01:28:57.016Z,99.04
2023-02-27T01:30:00.173Z,98.04
2023-02-27T01:31:03.743Z,97.38
2023-02-27T01:32:10.075Z,95.54
2023-02-27T01:33:14.582Z,93.55
2023-02-27T01:34:19.064Z,93.21
2023-02-27T01:35:23.507Z,92.88
2023-02-27T01:36:25.854Z,94.93
2023-02-27T01:37:29.476Z,97.45
2023-02-27T01:38:32.869Z,98.47
2023-02-27T01:39:37.320Z,99.63
2023-02-27T01:40:44.137Z,98.32
2023-02-27T01:41:46.405Z,98.23
2023-02-27T01:42:51.017Z,98.51
2023-02-27T01:44:04.508Z,98.01
2023-02-27T01:45:12.513Z,98.61
2023-02-27T01:46:15.896Z,99.71
2023-02-27T01:47:20.339Z,98.86
2023-02-27T01:48:30.462Z,99.09
2023-02-27T01:49:34.558Z,99.63
2023-02-27T01:50:39.856Z,97.96
2023-02-27T01:51:55.133Z,98.70
2023-02-27T01:53:00.425Z,99.81
2023-02-27T01:54:06.018Z,100.00
2023-02-27T01:55:11.079Z,100.00
2023-02-27T01:56:19.110Z,100.00
2023-02-27T01:57:22.593Z,100.00
2023-02-27T01:58:29.009Z,100.00
2023-02-27T01:59:34.487Z,100.00
2023-02-27T02:00:41.171Z,100.00
2023-02-27T02:01:44.144Z,99.73
2023-02-27T02:02:55.366Z,99.35
2023-02-27T02:04:01.169Z,99.41
2023-02-27T02:05:07.459Z,99.86
2023-02-27T02:06:11.052Z,99.43
2023-02-27T02:07:16.384Z,99.76
2023-02-27T02:08:20.399Z,100.00
2023-02-27T02:09:24.752Z,100.00
2023-02-27T02:10:30.295Z,100.00
2023-02-27T02:11:33.662Z,100.00
2023-02-27T02:12:39.032Z,100.00
2023-02-27T02:13:42.115Z,99.97
2023-02-27T02:14:48.337Z,100.00
2023-02-27T02:16:12.050Z,100.00
2023-02-27T02:17:17.277Z,100.00
2023-02-27T02:18:29.354Z,100.00
2023-02-27T02:19:54.589Z,100.00
2023-02-27T02:21:10.645Z,99.56
2023-02-27T02:22:20.904Z,99.53
2023-02-27T02:23:45.096Z,100.00
2023-02-27T02:24:52.987Z,100.00
2023-02-27T02:26:04.323Z,100.00
2023-02-27T02:27:20.286Z,99.90
2023-02-27T02:28:26.364Z,98.56
2023-02-27T02:29:52.304Z,97.30
2023-02-27T02:30:59.883Z,97.02
2023-02-27T02:32:10.119Z,95.80
2023-02-27T02:33:15.689Z,96.28
2023-02-27T02:34:36.677Z,98.03
2023-02-27T02:35:58.852Z,100.00
2023-02-27T02:37:23.760Z,100.00
2023-02-27T02:38:46.940Z,100.00
2023-02-27T02:39:52.403Z,99.62
2023-02-27T02:41:00.498Z,97.49
2023-02-27T02:42:15.917Z,98.91
2023-02-27T02:43:21.077Z,99.39
2023-02-27T02:44:28.929Z,99.63
2023-02-27T02:45:34.357Z,100.00
2023-02-27T02:46:48.421Z,100.00
2023-02-27T02:48:14.910Z,100.00
2023-02-27T02:49:19.765Z,100.00
2023-02-27T02:50:25.150Z,99.85
2023-02-27T02:51:42.338Z,99.18
2023-02-27T02:52:59.283Z,99.03
2023-02-27T02:54:08.149Z,99.17
2023-02-27T02:55:14.874Z,99.50
2023-02-27T02:56:31.111Z,100.00
2023-02-27T02:57:37.104Z,100.00
2023-02-27T02:58:42.316Z,100.00
2023-02-27T02:59:48.565Z,100.00
2023-02-27T03:01:05.721Z,100.00
2023-02-27T03:02:14.006Z,100.00
2023-02-27T03:03:20.987Z,100.00
2023-02-27T03:04:29.411Z,100.00
2023-02-27T03:05:34.391Z,100.00
2023-02-27T03:06:39.663Z,100.00
2023-02-27T03:07:50.021Z,100.00
2023-02-27T03:08:57.447Z,100.00
2023-02-27T03:10:14.857Z,100.00
2023-02-27T03:11:18.903Z,100.00
2023-02-27T03:12:22.989Z,100.00
2023-02-27T03:13:32.225Z,100.00
2023-02-27T03:14:37.722Z,100.00
2023-02-27T03:15:45.923Z,99.64
2023-02-27T03:16:50.237Z,100.00
2023-02-27T03:18:09.858Z,100.00
2023-02-27T03:19:25.374Z,100.00
2023-02-27T03:20:30.469Z,100.00
2023-02-27T03:21:37.612Z,100.00
2023-02-27T03:22:41.722Z,100.00
2023-02-27T03:23:49.769Z,100.00
2023-02-27T03:24:55.642Z,100.00
2023-02-27T03:26:00.119Z,99.72
2023-02-27T03:27:05.640Z,97.34
2023-02-27T03:28:11.574Z,95.12
2023-02-27T03:29:20.224Z,95.37
2023-02-27T03:30:27.081Z,95.03
2023-02-27T03:31:32.612Z,94.31
2023-02-27T03:32:39.394Z,94.22
2023-02-27T03:33:44.679Z,96.11
2023-02-27T03:34:49.214Z,97.79
2023-02-27T03:35:54.513Z,99.15
2023-02-27T03:37:02.081Z,100.00
2023-02-27T03:38:11.953Z,99.93
2023-02-27T03:39:26.224Z,97.60
2023-02-27T03:40:33.483Z,95.99
2023-02-27T03:41:51.195Z,94.04
2023-02-27T03:42:58.667Z,93.93
2023-02-27T03:44:20.654Z,94.57
2023-02-27T03:46:42.786Z,94.36
2023-02-27T03:47:48.083Z,94.11
2023-02-27T03:48:50.544Z,94.80
2023-02-27T03:49:54.089Z,96.01
2023-02-27T03:50:59.853Z,97.19
2023-02-27T03:52:05.176Z,95.40
2023-02-27T03:53:10.423Z,94.14
2023-02-27T03:54:24.687Z,93.33
2023-02-27T03:55:38.728Z,92.95
2023-02-27T03:56:47.303Z,92.25
2023-02-27T03:57:50.859Z,93.20
2023-02-27T03:58:54.793Z,92.63
2023-02-27T03:59:58.933Z,92.76
2023-02-27T04:01:02.430Z,92.26
2023-02-27T04:02:05.814Z,92.09
2023-02-27T04:03:10.169Z,91.99
2023-02-27T04:04:14.823Z,92.23
2023-02-27T04:05:21.042Z,92.53
2023-02-27T04:06:50.791Z,92.01
2023-02-27T04:08:00.537Z,91.65
2023-02-27T04:10:34.914Z,92.17
2023-02-27T04:11:39.249Z,92.50
2023-02-27T04:12:45.825Z,92.99
2023-02-27T04:13:50.639Z,93.79
2023-02-27T04:14:58.634Z,94.05
2023-02-27T04:16:09.378Z,96.69
2023-02-27T04:17:17.362Z,97.20
2023-02-27T04:18:23.785Z,98.49
2023-02-27T04:19:32.094Z,98.78
2023-02-27T04:20:36.653Z,98.79
2023-02-27T04:21:50.864Z,99.18
2023-02-27T04:22:55.674Z,99.62
2023-02-27T04:23:59.785Z,99.25
2023-02-27T04:25:16.892Z,98.65
2023-02-27T04:26:30.835Z,98.70
2023-02-27T04:27:42.597Z,98.61
2023-02-27T04:28:47.982Z,98.82
2023-02-27T04:29:57.224Z,98.19
2023-02-27T04:31:09.016Z,98.02
2023-02-27T04:32:21.250Z,98.67
2023-02-27T04:33:40.332Z,99.12
2023-02-27T04:34:47.596Z,98.84
2023-02-27T04:35:56.740Z,98.60
2023-02-27T04:37:04.008Z,98.84
2023-02-27T04:38:09.067Z,99.90
2023-02-27T04:39:26.257Z,99.09
2023-02-27T04:40:37.617Z,98.60
2023-02-27T04:41:43.419Z,98.57
2023-02-27T04:42:51.594Z,98.33
2023-02-27T04:43:56.999Z,98.62
2023-02-27T04:45:05.415Z,98.86
2023-02-27T04:46:11.844Z,98.91
2023-02-27T04:47:17.769Z,98.10
2023-02-27T04:48:25.876Z,96.82
2023-02-27T04:49:29.987Z,97.15
2023-02-27T04:50:44.673Z,97.51
2023-02-27T04:51:57.071Z,95.71
2023-02-27T04:53:12.563Z,93.67
2023-02-27T04:54:16.686Z,92.49
2023-02-27T04:55:21.652Z,91.24
2023-02-27T04:56:33.755Z,90.67
2023-02-27T04:57:40.238Z,91.53
2023-02-27T04:58:47.012Z,93.00
2023-02-27T04:59:52.532Z,93.43
2023-02-27T05:00:56.736Z,94.59
2023-02-27T05:02:04.186Z,94.11
2023-02-27T05:03:09.175Z,93.68
2023-02-27T05:04:17.369Z,93.23
2023-02-27T05:05:22.882Z,92.94
2023-02-27T05:06:29.085Z,92.96
2023-02-27T05:07:33.469Z,93.90
2023-02-27T05:08:41.739Z,93.68
2023-02-27T05:09:46.761Z,93.15
2023-02-27T05:10:53.229Z,92.35
2023-02-27T05:12:01.584Z,92.04
2023-02-27T05:13:15.585Z,92.49
2023-02-27T05:14:29.726Z,92.99
2023-02-27T05:15:45.951Z,93.07
2023-02-27T05:16:54.229Z,93.13
2023-02-27T05:18:02.248Z,93.38
2023-02-27T05:19:08.327Z,93.50
2023-02-27T05:20:13.807Z,92.35
2023-02-27T05:21:22.900Z,92.09
2023-02-27T05:22:30.123Z,91.70
2023-02-27T05:23:43.856Z,91.55
2023-02-27T05:24:55.300Z,92.41
2023-02-27T05:26:02.475Z,92.39
2023-02-27T05:27:24.671Z,91.45
2023-02-27T05:28:32.149Z,91.26
2023-02-27T05:29:38.780Z,89.42
2023-02-27T05:30:44.783Z,87.39
2023-02-27T05:31:51.772Z,86.34
2023-02-27T05:33:01.515Z,86.01
2023-02-27T05:34:06.506Z,84.30
2023-02-27T05:35:21.374Z,84.73
2023-02-27T05:36:26.655Z,85.11
2023-02-27T05:37:32.983Z,84.41
2023-02-27T05:38:38.038Z,85.83
2023-02-27T05:39:42.578Z,86.26
2023-02-27T05:40:47.032Z,86.68
2023-02-27T05:41:51.372Z,86.74
2023-02-27T05:42:58.674Z,87.64
2023-02-27T05:44:03.300Z,88.46
2023-02-27T05:45:15.467Z,88.15
2023-02-27T05:46:23.370Z,87.29
2023-02-27T05:47:29.912Z,86.60
2023-02-27T05:48:38.096Z,86.44
2023-02-27T05:49:46.861Z,86.09
2023-02-27T05:50:52.638Z,86.67
2023-02-27T05:51:57.727Z,86.09
2023-02-27T05:53:02.599Z,85.30
2023-02-27T05:54:12.647Z,83.41
2023-02-27T05:55:18.719Z,81.22
2023-02-27T05:56:27.493Z,80.17
2023-02-27T05:57:37.478Z,79.46
2023-02-27T05:58:47.777Z,78.81
2023-02-27T05:59:53.819Z,80.26
2023-02-27T06:01:07.759Z,80.28
2023-02-27T06:02:12.119Z,79.83
2023-02-27T06:03:15.380Z,78.90
2023-02-27T06:04:18.029Z,78.74
2023-02-27T06:05:21.828Z,78.11
2023-02-27T06:06:26.554Z,78.38
2023-02-27T06:07:34.096Z,80.43
2023-02-27T06:08:38.444Z,81.50
2023-02-27T06:09:42.820Z,82.54
2023-02-27T06:10:46.875Z,83.25
2023-02-27T06:11:49.162Z,82.87
2023-02-27T06:12:52.387Z,82.99
2023-02-27T06:13:55.642Z,83.28
2023-02-27T06:15:00.107Z,83.24
2023-02-27T06:16:03.485Z,82.46
2023-02-27T06:17:06.946Z,82.22
2023-02-27T06:18:16.868Z,82.96
2023-02-27T06:19:20.381Z,82.92
2023-02-27T06:20:22.837Z,83.50
2023-02-27T06:21:28.203Z,84.08
2023-02-27T06:22:31.197Z,83.91
2023-02-27T06:23:35.575Z,83.28
2023-02-27T06:24:39.248Z,84.21
2023-02-27T06:25:48.695Z,84.02
2023-02-27T06:26:52.120Z,83.46
2023-02-27T06:27:56.567Z,83.49
2023-02-27T06:29:01.957Z,82.08
2023-02-27T06:30:07.593Z,81.75
2023-02-27T06:31:10.876Z,82.27
2023-02-27T06:32:15.072Z,82.41
2023-02-27T06:33:17.319Z,82.06
2023-02-27T06:34:23.652Z,80.78
2023-02-27T06:35:26.726Z,80.63
2023-02-27T06:36:31.455Z,80.27
2023-02-27T06:37:34.797Z,79.31
2023-02-27T06:38:38.437Z,79.62
2023-02-27T06:39:42.219Z,80.14
2023-02-27T06:40:45.270Z,80.11
2023-02-27T06:41:49.060Z,80.23
2023-02-27T06:42:54.196Z,81.98
2023-02-27T06:43:58.402Z,81.31
2023-02-27T06:45:02.776Z,80.15
2023-02-27T06:46:07.286Z,79.42
2023-02-27T06:47:10.934Z,78.36
2023-02-27T06:48:15.794Z,79.16
2023-02-27T06:49:19.715Z,78.44
2023-02-27T06:50:24.475Z,77.79
2023-02-27T06:51:28.813Z,78.17
2023-02-27T06:52:34.095Z,77.74
2023-02-27T06:53:37.703Z,77.85
2023-02-27T06:54:41.209Z,77.35
2023-02-27T06:55:44.506Z,77.46
2023-02-27T06:56:49.049Z,78.54
2023-02-27T06:57:54.230Z,78.36
2023-02-27T06:58:59.516Z,78.60
2023-02-27T07:00:04.735Z,78.17
2023-02-27T07:01:07.288Z,78.20
2023-02-27T07:02:14.212Z,78.69
2023-02-27T07:03:17.572Z,78.79
2023-02-27T07:04:21.496Z,79.00
2023-02-27T07:05:23.885Z,79.38
2023-02-27T07:07:32.484Z,79.24
2023-02-27T07:07:37.515Z,78.24
2023-02-27T07:08:54.444Z,78.71
2023-02-27T07:09:46.886Z,80.15
2023-02-27T07:10:50.275Z,81.09
2023-02-27T07:11:52.949Z,81.90
2023-02-27T07:12:55.726Z,82.23
2023-02-27T07:13:59.255Z,81.91
2023-02-27T07:15:02.625Z,81.51
2023-02-27T07:16:06.996Z,81.43
2023-02-27T07:17:12.257Z,82.79
2023-02-27T07:18:14.383Z,81.80
2023-02-27T07:19:18.466Z,82.61
2023-02-27T07:20:22.986Z,82.26
2023-02-27T07:21:26.584Z,81.00
2023-02-27T07:22:30.121Z,80.33
2023-02-27T07:23:33.353Z,81.10
2023-02-27T07:24:37.232Z,81.10
2023-02-27T07:25:40.716Z,81.44
2023-02-27T07:26:44.115Z,82.00
2023-02-27T07:27:52.328Z,80.62
2023-02-27T07:28:55.616Z,79.87
2023-02-27T07:29:58.841Z,79.46
2023-02-27T07:31:03.933Z,79.82
2023-02-27T07:32:07.994Z,80.50
2023-02-27T07:33:15.381Z,79.71
2023-02-27T07:34:19.122Z,79.39
2023-02-27T07:35:23.445Z,78.76
2023-02-27T07:36:27.173Z,77.86
2023-02-27T07:37:30.645Z,77.20
2023-02-27T07:38:34.056Z,77.34
2023-02-27T07:39:37.669Z,76.69
2023-02-27T07:40:41.169Z,76.32
2023-02-27T07:41:44.054Z,75.95
2023-02-27T07:42:53.813Z,76.59
2023-02-27T07:43:57.329Z,76.60
2023-02-27T07:45:03.266Z,76.40
2023-02-27T07:46:06.576Z,76.75
2023-02-27T07:47:10.245Z,76.38
2023-02-27T07:48:12.608Z,76.24
2023-02-27T07:49:16.873Z,76.49
2023-02-27T07:50:20.158Z,76.20
2023-02-27T07:51:24.296Z,76.21
2023-02-27T07:52:27.551Z,75.55
2023-02-27T07:53:33.160Z,76.68
2023-02-27T07:54:38.334Z,76.45
2023-02-27T07:55:40.449Z,76.59
2023-02-27T07:56:43.984Z,76.56
2023-02-27T07:57:49.713Z,76.57
2023-02-27T07:58:52.978Z,77.54
2023-02-27T07:59:55.458Z,76.83
2023-02-27T08:00:59.061Z,77.04
2023-02-27T08:02:03.488Z,77.11
2023-02-27T08:03:07.973Z,77.19
2023-02-27T08:04:11.280Z,76.68
2023-02-27T08:05:14.740Z,76.95
2023-02-27T08:06:18.245Z,75.95
2023-02-27T08:07:21.844Z,75.34
2023-02-27T08:08:25.778Z,75.74
2023-02-27T08:09:29.388Z,76.03
2023-02-27T08:10:32.162Z,76.38
2023-02-27T08:11:35.283Z,75.99
2023-02-27T08:12:40.623Z,75.60
2023-02-27T08:14:00.126Z,75.01
2023-02-27T08:14:51.091Z,76.45
2023-02-27T08:15:54.963Z,77.23
2023-02-27T08:17:02.185Z,76.13
2023-02-27T08:18:05.880Z,76.33
2023-02-27T08:19:09.061Z,76.58
2023-02-27T08:20:13.759Z,76.28
2023-02-27T08:21:17.024Z,75.75
2023-02-27T08:22:20.314Z,74.70
2023-02-27T08:23:24.646Z,74.92
2023-02-27T08:24:27.962Z,74.05
2023-02-27T08:25:31.170Z,74.00
2023-02-27T08:26:34.530Z,74.32
2023-02-27T08:27:39.739Z,75.81
2023-02-27T08:28:43.013Z,74.31
2023-02-27T08:29:46.500Z,74.56
2023-02-27T08:30:50.033Z,74.25
2023-02-27T08:31:54.392Z,74.11
2023-02-27T08:32:57.075Z,73.42
2023-02-27T08:34:09.867Z,73.67
2023-02-27T08:35:07.840Z,73.92
2023-02-27T08:36:12.150Z,73.09
2023-02-27T08:37:15.762Z,72.48
2023-02-27T08:38:18.954Z,72.16
2023-02-27T08:39:25.183Z,72.35
2023-02-27T08:40:28.679Z,71.70
2023-02-27T08:41:32.779Z,72.74
2023-02-27T08:42:36.319Z,72.54
2023-02-27T08:43:38.977Z,72.53
2023-02-27T08:44:44.887Z,72.11
2023-02-27T08:45:50.283Z,72.22
2023-02-27T08:46:54.929Z,71.96
2023-02-27T08:47:58.539Z,71.28
2023-02-27T08:49:01.692Z,71.37
2023-02-27T08:50:06.828Z,71.51
2023-02-27T08:51:10.198Z,71.22
2023-02-27T08:52:13.502Z,71.61
2023-02-27T08:53:16.480Z,72.03
2023-02-27T08:54:20.079Z,72.25
2023-02-27T08:55:23.780Z,72.00
2023-02-27T08:56:29.275Z,70.97
2023-02-27T08:57:35.504Z,70.95
2023-02-27T08:58:40.793Z,69.89
2023-02-27T08:59:44.344Z,68.88
2023-02-27T09:00:47.204Z,67.60
2023-02-27T09:01:51.309Z,68.77
2023-02-27T09:03:01.159Z,69.12
2023-02-27T09:04:07.293Z,69.64
2023-02-27T09:05:10.169Z,69.56
2023-02-27T09:06:13.048Z,69.47
2023-02-27T09:07:17.401Z,69.24
2023-02-27T09:08:22.879Z,69.40
2023-02-27T09:09:27.860Z,69.20
2023-02-27T09:10:34.423Z,68.65
2023-02-27T09:11:38.828Z,67.67
2023-02-27T09:12:44.584Z,66.94
2023-02-27T09:13:47.332Z,65.27
2023-02-27T09:14:50.814Z,64.68
2023-02-27T09:15:54.224Z,64.78
2023-02-27T09:16:58.517Z,62.55
2023-02-27T09:18:04.797Z,62.33
2023-02-27T09:19:08.594Z,61.90
2023-02-27T09:20:13.273Z,62.83
2023-02-27T09:21:15.908Z,63.99
2023-02-27T09:22:20.640Z,63.06
2023-02-27T09:23:22.921Z,64.26
2023-02-27T09:24:27.661Z,64.39
2023-02-27T09:25:31.506Z,64.26
2023-02-27T09:26:45.026Z,63.52
2023-02-27T09:27:40.176Z,62.43
2023-02-27T09:28:43.535Z,60.62
2023-02-27T09:29:47.294Z,62.00
2023-02-27T09:30:49.541Z,62.72
2023-02-27T09:31:52.000Z,62.53
2023-02-27T09:32:55.297Z,61.99
2023-02-27T09:34:02.082Z,61.22
2023-02-27T09:35:07.598Z,61.72
2023-02-27T09:36:12.328Z,61.48
2023-02-27T09:37:17.864Z,61.13
2023-02-27T09:38:21.176Z,60.60
2023-02-27T09:39:24.511Z,59.23
2023-02-27T09:40:31.217Z,59.32
2023-02-27T09:41:37.468Z,59.18
2023-02-27T09:42:45.915Z,58.88
2023-02-27T09:43:58.022Z,60.06
2023-02-27T09:45:06.136Z,58.58
2023-02-27T09:46:10.659Z,59.38
2023-02-27T09:47:28.293Z,59.91
2023-02-27T09:48:33.687Z,60.43
2023-02-27T09:49:39.585Z,61.12
2023-02-27T09:50:45.003Z,61.24
2023-02-27T09:51:47.943Z,59.94
2023-02-27T09:52:51.569Z,60.12
2023-02-27T09:53:56.844Z,61.28
2023-02-27T09:54:59.222Z,60.71
2023-02-27T09:56:05.522Z,60.24
2023-02-27T09:57:10.909Z,61.40
2023-02-27T09:58:29.965Z,61.47
2023-02-27T09:59:47.375Z,61.75
2023-02-27T10:01:03.368Z,61.55
2023-02-27T10:02:14.314Z,62.00
2023-02-27T10:03:38.830Z,62.26
2023-02-27T10:04:47.669Z,62.63
2023-02-27T10:06:00.745Z,62.77
2023-02-27T10:07:09.301Z,61.71
2023-02-27T10:08:23.776Z,62.55
2023-02-27T10:09:41.258Z,62.95
2023-02-27T10:10:48.326Z,62.26
2023-02-27T10:12:15.861Z,63.16
2023-02-27T10:14:46.054Z,62.00
2023-02-27T10:15:53.582Z,60.69
2023-02-27T10:17:01.005Z,60.96
2023-02-27T10:18:26.079Z,60.52
2023-02-27T10:19:30.038Z,60.00
2023-02-27T10:20:35.227Z,60.18
2023-02-27T10:21:40.512Z,60.20
2023-02-27T10:22:46.227Z,60.60
2023-02-27T10:23:54.518Z,60.78
2023-02-27T10:25:00.643Z,60.16
2023-02-27T10:26:04.545Z,60.72
2023-02-27T10:27:09.316Z,61.46
2023-02-27T10:28:13.644Z,61.23
2023-02-27T10:29:23.115Z,61.62
2023-02-27T10:30:30.493Z,62.75
2023-02-27T10:31:35.282Z,63.49
2023-02-27T10:32:40.108Z,65.01
2023-02-27T10:33:44.869Z,64.55
2023-02-27T10:35:06.221Z,64.26
2023-02-27T10:36:27.006Z,63.85
2023-02-27T10:37:21.242Z,63.48
2023-02-27T10:38:34.505Z,63.84
2023-02-27T10:39:49.934Z,64.17
2023-02-27T10:40:55.924Z,65.08
2023-02-27T10:42:00.387Z,64.75
2023-02-27T10:43:06.244Z,64.83
2023-02-27T10:44:10.407Z,65.92
2023-02-27T10:45:16.811Z,65.52
2023-02-27T10:46:21.900Z,65.49
2023-02-27T10:47:25.524Z,64.93
2023-02-27T10:48:29.343Z,65.45
2023-02-27T10:49:34.406Z,64.02
2023-02-27T10:50:39.161Z,64.39
2023-02-27T10:51:44.763Z,65.32
2023-02-27T10:52:48.052Z,64.78
2023-02-27T10:53:53.234Z,65.12
2023-02-27T10:54:59.271Z,64.60
2023-02-27T10:56:04.320Z,65.00
2023-02-27T10:57:21.446Z,65.34
2023-02-27T10:58:25.139Z,66.25
2023-02-27T10:59:29.267Z,67.31
2023-02-27T11:00:36.818Z,67.00
2023-02-27T11:01:48.514Z,65.76
2023-02-27T11:02:52.695Z,64.58
2023-02-27T11:03:57.898Z,64.62
2023-02-27T11:05:01.189Z,63.93
2023-02-27T11:06:08.338Z,64.16
2023-02-27T11:07:14.869Z,63.89
2023-02-27T11:08:21.829Z,63.89
2023-02-27T11:09:26.795Z,63.70
2023-02-27T11:10:29.650Z,64.01
2023-02-27T11:11:33.077Z,65.40
2023-02-27T11:12:36.779Z,65.14
2023-02-27T11:13:42.822Z,65.00
2023-02-27T11:14:50.781Z,64.92
2023-02-27T11:16:13.434Z,65.03
2023-02-27T11:17:31.013Z,65.06
2023-02-27T11:18:35.357Z,66.11
2023-02-27T11:19:39.387Z,66.49
2023-02-27T11:20:46.589Z,66.01
2023-02-27T11:22:07.182Z,65.50
2023-02-27T11:23:17.475Z,66.59
2023-02-27T11:24:21.119Z,67.56
2023-02-27T11:25:25.433Z,67.76
2023-02-27T11:26:35.941Z,66.44
2023-02-27T11:27:39.127Z,66.29
2023-02-27T11:28:42.405Z,66.26
2023-02-27T11:29:47.807Z,65.93
2023-02-27T11:30:59.404Z,64.82
2023-02-27T11:32:05.341Z,64.56
2023-02-27T11:33:09.468Z,64.79
2023-02-27T11:34:15.608Z,65.32
2023-02-27T11:35:30.160Z,65.25
2023-02-27T11:36:44.363Z,64.85
2023-02-27T11:37:50.258Z,65.12
2023-02-27T11:38:58.250Z,64.96
2023-02-27T11:40:15.174Z,64.70
2023-02-27T11:41:18.827Z,65.68
2023-02-27T11:42:26.214Z,66.13
2023-02-27T11:43:33.580Z,66.13
2023-02-27T11:44:50.255Z,64.93
2023-02-27T11:46:04.777Z,65.36
2023-02-27T11:46:49.470Z,65.94
2023-02-27T11:47:56.960Z,66.00
2023-02-27T11:49:01.860Z,64.94
2023-02-27T11:50:14.548Z,64.13
2023-02-27T11:51:19.714Z,64.06
2023-02-27T11:52:30.969Z,65.23
2023-02-27T11:53:44.499Z,65.22
2023-02-27T11:54:49.070Z,65.69
2023-02-27T11:55:54.432Z,66.47
2023-02-27T11:56:59.429Z,66.03
2023-02-27T11:58:46.983Z,65.77
2023-02-27T11:59:52.250Z,65.69
2023-02-27T12:00:56.690Z,66.13
2023-02-27T12:02:01.770Z,64.71
2023-02-27T12:03:06.188Z,64.65
2023-02-27T12:04:11.508Z,64.95
2023-02-27T12:05:22.936Z,65.33
2023-02-27T12:06:30.067Z,65.07
2023-02-27T12:07:35.402Z,64.73
2023-02-27T12:08:43.633Z,64.97
2023-02-27T12:09:56.284Z,65.15
2023-02-27T12:11:18.805Z,66.08
2023-02-27T12:12:23.868Z,66.17
2023-02-27T12:13:36.576Z,66.09
2023-02-27T12:14:48.271Z,65.33
2023-02-27T12:15:56.886Z,65.36
2023-02-27T12:17:02.340Z,65.91
2023-02-27T12:18:13.063Z,65.75
2023-02-27T12:19:24.203Z,66.42
2023-02-27T12:20:30.198Z,66.56
2023-02-27T12:22:53.811Z,66.47
2023-02-27T12:23:58.686Z,66.26
2023-02-27T12:25:09.167Z,66.26
2023-02-27T12:26:17.893Z,65.27
2023-02-27T12:27:28.630Z,65.74
2023-02-27T12:28:32.841Z,66.51
2023-02-27T12:29:46.817Z,66.79
2023-02-27T12:30:53.860Z,67.32
2023-02-27T12:32:02.103Z,67.04
2023-02-27T12:33:25.933Z,66.10
2023-02-27T12:34:30.994Z,65.87
2023-02-27T12:35:35.583Z,64.98
2023-02-27T12:36:38.208Z,65.08
2023-02-27T12:37:41.623Z,64.74
2023-02-27T12:38:45.443Z,65.22
2023-02-27T12:39:48.944Z,65.65
2023-02-27T12:40:57.775Z,65.70
2023-02-27T12:42:16.124Z,65.59
2023-02-27T12:43:39.245Z,65.45
2023-02-27T12:44:50.279Z,67.15
2023-02-27T12:45:55.370Z,66.67
2023-02-27T12:47:05.888Z,66.61
2023-02-27T12:48:12.599Z,67.82
2023-02-27T12:49:25.978Z,68.28
2023-02-27T12:50:34.365Z,68.53
2023-02-27T12:51:45.242Z,69.06
2023-02-27T12:52:56.491Z,69.28
2023-02-27T12:54:00.621Z,69.28
2023-02-27T12:55:11.960Z,69.71
2023-02-27T12:56:21.740Z,69.95
2023-02-27T12:57:39.234Z,70.13
2023-02-27T12:58:53.201Z,70.37
2023-02-27T13:00:10.581Z,70.09
2023-02-27T13:01:14.931Z,69.00
2023-02-27T13:02:20.616Z,70.16
2023-02-27T13:03:44.295Z,70.87
2023-02-27T13:04:49.447Z,70.99
2023-02-27T13:06:01.878Z,70.67
2023-02-27T13:07:07.636Z,70.80
2023-02-27T13:08:26.602Z,70.94
2023-02-27T13:09:31.161Z,70.47
2023-02-27T13:10:37.594Z,70.14
2023-02-27T13:11:48.512Z,70.01
2023-02-27T13:12:53.620Z,70.21
2023-02-27T13:14:06.175Z,70.65
2023-02-27T13:15:14.173Z,70.36
2023-02-27T13:16:33.998Z,69.88
2023-02-27T13:17:47.806Z,69.58
2023-02-27T13:19:01.037Z,70.44
2023-02-27T13:20:24.557Z,71.43
2023-02-27T13:21:31.131Z,71.60
2023-02-27T13:22:50.226Z,71.17
2023-02-27T13:23:56.007Z,70.74
2023-02-27T13:25:03.261Z,70.91
2023-02-27T13:26:07.704Z,72.09
2023-02-27T13:27:16.879Z,72.24
2023-02-27T13:28:25.605Z,71.70
2023-02-27T13:29:34.922Z,72.26
2023-02-27T13:30:46.588Z,72.19
2023-02-27T13:31:54.797Z,71.44
2023-02-27T13:33:00.306Z,72.00
2023-02-27T13:34:06.422Z,71.48
2023-02-27T13:35:20.558Z,72.13
2023-02-27T13:36:26.886Z,71.95
2023-02-27T13:37:48.133Z,71.78
2023-02-27T13:38:52.366Z,72.28
2023-02-27T13:40:02.820Z,72.44
2023-02-27T13:41:22.579Z,73.78
2023-02-27T13:42:31.827Z,72.75
2023-02-27T13:43:51.073Z,72.29
2023-02-27T13:44:43.155Z,72.54
2023-02-27T13:45:50.738Z,72.71
2023-02-27T13:46:53.413Z,72.05
2023-02-27T13:47:58.791Z,71.83
2023-02-27T13:49:07.912Z,71.92
2023-02-27T13:50:15.267Z,72.14
2023-02-27T13:51:39.243Z,72.16
2023-02-27T13:52:41.399Z,71.99
2023-02-27T13:53:45.001Z,72.07
2023-02-27T13:54:48.280Z,71.94
2023-02-27T13:55:52.840Z,71.83
2023-02-27T13:56:59.921Z,71.38
2023-02-27T13:58:04.440Z,71.81
2023-02-27T13:59:13.308Z,72.24
2023-02-27T14:00:21.984Z,72.29
2023-02-27T14:01:29.178Z,72.75
2023-02-27T14:02:59.908Z,72.88
2023-02-27T14:03:59.681Z,72.77
2023-02-27T14:05:07.349Z,72.89
2023-02-27T14:06:11.819Z,72.83
2023-02-27T14:07:18.763Z,72.27
2023-02-27T14:08:23.826Z,71.95
2023-02-27T14:09:30.798Z,72.35
2023-02-27T14:10:33.537Z,73.46
2023-02-27T14:11:39.207Z,73.89
2023-02-27T14:12:46.344Z,74.05
2023-02-27T14:13:54.620Z,73.41
2023-02-27T14:14:59.494Z,73.72
2023-02-27T14:16:02.757Z,74.37
2023-02-27T14:17:06.206Z,74.74
2023-02-27T14:18:18.052Z,74.18
2023-02-27T14:19:18.521Z,73.62
2023-02-27T14:20:24.634Z,73.51
2023-02-27T14:21:47.041Z,72.86
2023-02-27T14:23:10.288Z,73.21
2023-02-27T14:24:15.879Z,73.14